sensor_id;sensor_type;location;lat;lon;timestamp;pressure;altitude;pressure_sealevel;temperature;humidity
43281;BME280;62175;49.416;8.690;2023-02-12T00:01:56;102632.45;;;9.47;53.82
43281;BME280;62175;49.416;8.690;2023-02-12T00:04:24;102625.75;;;9.44;53.13
43281;BME280;62175;49.416;8.690;2023-02-12T00:06:50;102621.36;;;9.48;52.73
43281;BME280;62175;49.416;8.690;2023-02-12T00:09:17;102628.33;;;9.49;53.39
43281;BME280;62175;49.416;8.690;2023-02-12T00:11:44;102628.03;;;9.44;52.87
43281;BME280;62175;49.416;8.690;2023-02-12T00:14:14;102622.11;;;9.41;54.02
43281;BME280;62175;49.416;8.690;2023-02-12T00:16:43;102613.10;;;9.42;53.51
43281;BME280;62175;49.416;8.690;2023-02-12T00:19:12;102622.21;;;9.38;53.96
43281;BME280;62175;49.416;8.690;2023-02-12T00:21:41;102620.78;;;9.42;53.71
43281;BME280;62175;49.416;8.690;2023-02-12T00:24:09;102619.71;;;9.39;53.61
43281;BME280;62175;49.416;8.690;2023-02-12T00:26:44;102617.15;;;9.40;52.93
43281;BME280;62175;49.416;8.690;2023-02-12T00:29:13;102619.00;;;9.42;53.03
43281;BME280;62175;49.416;8.690;2023-02-12T00:31:42;102624.83;;;9.28;53.86
43281;BME280;62175;49.416;8.690;2023-02-12T00:34:11;102625.06;;;9.53;53.68
43281;BME280;62175;49.416;8.690;2023-02-12T00:36:45;102622.39;;;9.55;53.24
43281;BME280;62175;49.416;8.690;2023-02-12T00:39:14;102619.06;;;9.56;53.05
43281;BME280;62175;49.416;8.690;2023-02-12T00:41:45;102621.25;;;9.47;53.24
43281;BME280;62175;49.416;8.690;2023-02-12T00:44:14;102625.42;;;9.59;52.43
43281;BME280;62175;49.416;8.690;2023-02-12T00:46:44;102630.50;;;9.84;52.23
43281;BME280;62175;49.416;8.690;2023-02-12T00:49:14;102635.53;;;9.52;52.96
43281;BME280;62175;49.416;8.690;2023-02-12T00:51:41;102636.20;;;9.31;52.77
43281;BME280;62175;49.416;8.690;2023-02-12T00:54:09;102637.77;;;9.56;52.79
43281;BME280;62175;49.416;8.690;2023-02-12T00:56:36;102638.96;;;9.47;53.31
43281;BME280;62175;49.416;8.690;2023-02-12T00:59:04;102635.53;;;9.38;52.90
43281;BME280;62175;49.416;8.690;2023-02-12T01:01:31;102643.58;;;9.45;53.58
43281;BME280;62175;49.416;8.690;2023-02-12T01:03:58;102645.44;;;9.38;54.37
43281;BME280;62175;49.416;8.690;2023-02-12T01:06:27;102641.63;;;9.33;53.28
43281;BME280;62175;49.416;8.690;2023-02-12T01:08:55;102638.24;;;9.34;53.90
43281;BME280;62175;49.416;8.690;2023-02-12T01:11:23;102637.81;;;9.38;53.36
43281;BME280;62175;49.416;8.690;2023-02-12T01:13:50;102639.67;;;9.43;54.19
43281;BME280;62175;49.416;8.690;2023-02-12T01:16:20;102640.06;;;9.43;53.28
43281;BME280;62175;49.416;8.690;2023-02-12T01:18:48;102636.26;;;9.39;52.55
43281;BME280;62175;49.416;8.690;2023-02-12T01:21:19;102637.95;;;9.33;52.61
43281;BME280;62175;49.416;8.690;2023-02-12T01:23:47;102637.21;;;9.29;53.03
43281;BME280;62175;49.416;8.690;2023-02-12T01:26:16;102636.19;;;9.25;53.35
43281;BME280;62175;49.416;8.690;2023-02-12T01:28:48;102636.55;;;9.30;53.02
43281;BME280;62175;49.416;8.690;2023-02-12T01:31:19;102635.92;;;9.27;53.57
43281;BME280;62175;49.416;8.690;2023-02-12T01:33:48;102636.74;;;9.36;53.67
43281;BME280;62175;49.416;8.690;2023-02-12T01:36:16;102633.53;;;9.28;53.54
43281;BME280;62175;49.416;8.690;2023-02-12T01:38:43;102633.68;;;9.36;54.07
43281;BME280;62175;49.416;8.690;2023-02-12T01:41:12;102636.06;;;9.33;53.42
43281;BME280;62175;49.416;8.690;2023-02-12T01:43:40;102638.74;;;9.34;53.48
43281;BME280;62175;49.416;8.690;2023-02-12T01:46:10;102641.02;;;9.55;53.45
43281;BME280;62175;49.416;8.690;2023-02-12T01:48:42;102640.89;;;9.17;53.55
43281;BME280;62175;49.416;8.690;2023-02-12T01:51:15;102636.43;;;9.29;52.77
43281;BME280;62175;49.416;8.690;2023-02-12T01:53:48;102628.73;;;9.26;52.78
43281;BME280;62175;49.416;8.690;2023-02-12T01:56:17;102630.34;;;9.23;52.15
43281;BME280;62175;49.416;8.690;2023-02-12T01:58:46;102627.05;;;9.24;52.53
43281;BME280;62175;49.416;8.690;2023-02-12T02:01:21;102626.72;;;9.47;53.38
43281;BME280;62175;49.416;8.690;2023-02-12T02:03:52;102626.96;;;9.27;52.67
43281;BME280;62175;49.416;8.690;2023-02-12T02:06:25;102624.02;;;9.31;53.98
43281;BME280;62175;49.416;8.690;2023-02-12T02:08:54;102622.02;;;9.53;52.02
43281;BME280;62175;49.416;8.690;2023-02-12T02:11:22;102622.05;;;9.27;53.53
43281;BME280;62175;49.416;8.690;2023-02-12T02:13:50;102624.86;;;9.10;52.62
43281;BME280;62175;49.416;8.690;2023-02-12T02:16:22;102625.53;;;9.41;52.19
43281;BME280;62175;49.416;8.690;2023-02-12T02:18:55;102623.26;;;9.10;52.67
43281;BME280;62175;49.416;8.690;2023-02-12T02:21:44;102624.36;;;9.07;52.66
43281;BME280;62175;49.416;8.690;2023-02-12T02:25:40;102629.65;;;9.20;53.01
43281;BME280;62175;49.416;8.690;2023-02-12T02:28:27;102629.81;;;9.30;52.19
43281;BME280;62175;49.416;8.690;2023-02-12T02:31:00;102625.01;;;9.27;52.29
43281;BME280;62175;49.416;8.690;2023-02-12T02:33:36;102623.95;;;9.28;52.51
43281;BME280;62175;49.416;8.690;2023-02-12T02:36:14;102626.94;;;9.12;52.59
43281;BME280;62175;49.416;8.690;2023-02-12T02:38:50;102629.27;;;9.34;52.15
43281;BME280;62175;49.416;8.690;2023-02-12T02:41:24;102626.46;;;9.39;53.08
43281;BME280;62175;49.416;8.690;2023-02-12T02:43:54;102626.70;;;9.20;52.35
43281;BME280;62175;49.416;8.690;2023-02-12T02:46:26;102626.62;;;9.14;52.08
43281;BME280;62175;49.416;8.690;2023-02-12T02:48:59;102627.99;;;9.21;52.47
43281;BME280;62175;49.416;8.690;2023-02-12T02:51:32;102625.13;;;9.17;52.40
43281;BME280;62175;49.416;8.690;2023-02-12T02:54:04;102623.25;;;9.20;52.33
43281;BME280;62175;49.416;8.690;2023-02-12T02:56:37;102620.12;;;9.18;53.67
43281;BME280;62175;49.416;8.690;2023-02-12T02:59:09;102622.17;;;9.17;52.83
43281;BME280;62175;49.416;8.690;2023-02-12T03:01:41;102620.18;;;9.19;53.12
43281;BME280;62175;49.416;8.690;2023-02-12T03:04:14;102615.73;;;9.41;53.60
43281;BME280;62175;49.416;8.690;2023-02-12T03:06:47;102612.26;;;9.17;52.89
43281;BME280;62175;49.416;8.690;2023-02-12T03:09:21;102605.87;;;9.07;52.06
43281;BME280;62175;49.416;8.690;2023-02-12T03:11:49;102605.98;;;8.95;52.09
43281;BME280;62175;49.416;8.690;2023-02-12T03:14:22;102609.98;;;8.93;52.22
43281;BME280;62175;49.416;8.690;2023-02-12T03:16:55;102616.48;;;8.90;52.29
43281;BME280;62175;49.416;8.690;2023-02-12T03:19:26;102621.27;;;9.15;52.88
43281;BME280;62175;49.416;8.690;2023-02-12T03:21:59;102624.85;;;9.17;52.09
43281;BME280;62175;49.416;8.690;2023-02-12T03:24:32;102628.29;;;9.25;52.75
43281;BME280;62175;49.416;8.690;2023-02-12T03:27:05;102626.73;;;9.37;52.97
43281;BME280;62175;49.416;8.690;2023-02-12T03:29:33;102628.13;;;9.38;53.05
43281;BME280;62175;49.416;8.690;2023-02-12T03:32:15;102630.64;;;9.17;52.64
43281;BME280;62175;49.416;8.690;2023-02-12T03:34:50;102630.37;;;9.31;52.98
43281;BME280;62175;49.416;8.690;2023-02-12T03:37:23;102627.77;;;9.10;53.00
43281;BME280;62175;49.416;8.690;2023-02-12T03:39:56;102624.93;;;9.12;52.49
43281;BME280;62175;49.416;8.690;2023-02-12T03:42:33;102624.17;;;9.49;52.71
43281;BME280;62175;49.416;8.690;2023-02-12T03:45:04;102618.02;;;9.22;52.83
43281;BME280;62175;49.416;8.690;2023-02-12T03:47:40;102618.75;;;9.11;52.52
43281;BME280;62175;49.416;8.690;2023-02-12T03:50:16;102619.74;;;9.41;53.13
43281;BME280;62175;49.416;8.690;2023-02-12T03:52:45;102620.79;;;9.06;52.80
43281;BME280;62175;49.416;8.690;2023-02-12T03:55:13;102626.24;;;8.94;52.96
43281;BME280;62175;49.416;8.690;2023-02-12T03:57:46;102627.65;;;9.31;52.86
43281;BME280;62175;49.416;8.690;2023-02-12T04:00:18;102630.25;;;9.17;52.29
43281;BME280;62175;49.416;8.690;2023-02-12T04:02:47;102631.93;;;9.20;52.08
43281;BME280;62175;49.416;8.690;2023-02-12T04:05:18;102633.87;;;9.17;52.15
43281;BME280;62175;49.416;8.690;2023-02-12T04:07:45;102635.45;;;8.98;52.32
43281;BME280;62175;49.416;8.690;2023-02-12T04:10:14;102637.23;;;9.21;53.18
43281;BME280;62175;49.416;8.690;2023-02-12T04:12:48;102636.68;;;8.99;52.74
43281;BME280;62175;49.416;8.690;2023-02-12T04:15:31;102635.12;;;8.99;53.56
43281;BME280;62175;49.416;8.690;2023-02-12T04:18:08;102635.10;;;8.95;52.69
43281;BME280;62175;49.416;8.690;2023-02-12T04:20:45;102635.85;;;9.02;53.13
43281;BME280;62175;49.416;8.690;2023-02-12T04:23:24;102633.12;;;9.12;52.33
43281;BME280;62175;49.416;8.690;2023-02-12T04:26:01;102637.16;;;9.39;53.57
43281;BME280;62175;49.416;8.690;2023-02-12T04:28:37;102645.05;;;9.15;52.37
43281;BME280;62175;49.416;8.690;2023-02-12T04:31:14;102644.73;;;9.05;53.00
43281;BME280;62175;49.416;8.690;2023-02-12T04:33:49;102646.39;;;9.26;53.17
43281;BME280;62175;49.416;8.690;2023-02-12T04:36:22;102647.67;;;9.36;53.52
43281;BME280;62175;49.416;8.690;2023-02-12T04:38:53;102648.60;;;9.33;53.46
43281;BME280;62175;49.416;8.690;2023-02-12T04:41:22;102647.70;;;9.09;53.54
43281;BME280;62175;49.416;8.690;2023-02-12T04:43:50;102646.44;;;9.36;53.07
43281;BME280;62175;49.416;8.690;2023-02-12T04:46:17;102646.25;;;9.09;52.75
43281;BME280;62175;49.416;8.690;2023-02-12T04:48:51;102643.69;;;9.11;52.30
43281;BME280;62175;49.416;8.690;2023-02-12T04:51:19;102641.60;;;9.14;52.54
43281;BME280;62175;49.416;8.690;2023-02-12T04:53:47;102641.40;;;9.08;52.76
43281;BME280;62175;49.416;8.690;2023-02-12T04:56:15;102639.67;;;9.07;52.84
43281;BME280;62175;49.416;8.690;2023-02-12T04:58:42;102639.52;;;9.22;53.06
43281;BME280;62175;49.416;8.690;2023-02-12T05:01:10;102639.41;;;9.10;52.61
43281;BME280;62175;49.416;8.690;2023-02-12T05:03:37;102637.60;;;9.17;52.69
43281;BME280;62175;49.416;8.690;2023-02-12T05:06:05;102634.51;;;9.23;53.18
43281;BME280;62175;49.416;8.690;2023-02-12T05:08:33;102633.64;;;9.16;52.89
43281;BME280;62175;49.416;8.690;2023-02-12T05:11:03;102632.30;;;9.49;53.07
43281;BME280;62175;49.416;8.690;2023-02-12T05:13:31;102632.56;;;9.23;53.14
43281;BME280;62175;49.416;8.690;2023-02-12T05:15:58;102632.24;;;9.25;53.38
43281;BME280;62175;49.416;8.690;2023-02-12T05:18:26;102633.43;;;9.31;52.46
43281;BME280;62175;49.416;8.690;2023-02-12T05:20:55;102631.89;;;9.34;52.74
43281;BME280;62175;49.416;8.690;2023-02-12T05:23:22;102630.86;;;9.16;54.05
43281;BME280;62175;49.416;8.690;2023-02-12T05:25:52;102631.12;;;9.36;53.15
43281;BME280;62175;49.416;8.690;2023-02-12T05:28:19;102631.87;;;9.40;52.80
43281;BME280;62175;49.416;8.690;2023-02-12T05:30:47;102631.99;;;9.32;52.77
43281;BME280;62175;49.416;8.690;2023-02-12T05:33:14;102632.87;;;9.17;52.63
43281;BME280;62175;49.416;8.690;2023-02-12T05:35:41;102628.00;;;9.34;53.60
43281;BME280;62175;49.416;8.690;2023-02-12T05:38:08;102630.22;;;9.11;53.59
43281;BME280;62175;49.416;8.690;2023-02-12T05:40:36;102629.85;;;9.26;53.47
43281;BME280;62175;49.416;8.690;2023-02-12T05:43:04;102630.85;;;9.37;53.07
43281;BME280;62175;49.416;8.690;2023-02-12T05:45:31;102633.35;;;9.13;53.52
43281;BME280;62175;49.416;8.690;2023-02-12T05:47:58;102636.75;;;9.13;53.11
43281;BME280;62175;49.416;8.690;2023-02-12T05:50:25;102642.12;;;9.08;52.50
43281;BME280;62175;49.416;8.690;2023-02-12T05:52:53;102646.15;;;9.23;53.01
43281;BME280;62175;49.416;8.690;2023-02-12T05:55:21;102650.17;;;9.13;53.35
43281;BME280;62175;49.416;8.690;2023-02-12T05:57:49;102652.44;;;9.55;52.80
43281;BME280;62175;49.416;8.690;2023-02-12T06:00:17;102651.49;;;9.21;52.73
43281;BME280;62175;49.416;8.690;2023-02-12T06:02:45;102650.04;;;9.21;52.81
43281;BME280;62175;49.416;8.690;2023-02-12T06:05:12;102652.47;;;9.18;52.32
43281;BME280;62175;49.416;8.690;2023-02-12T06:07:40;102654.30;;;9.06;52.79
43281;BME280;62175;49.416;8.690;2023-02-12T06:10:08;102656.04;;;8.98;52.52
43281;BME280;62175;49.416;8.690;2023-02-12T06:12:35;102655.55;;;9.32;53.03
43281;BME280;62175;49.416;8.690;2023-02-12T06:15:03;102658.04;;;9.18;52.56
43281;BME280;62175;49.416;8.690;2023-02-12T06:17:32;102657.76;;;9.19;52.49
43281;BME280;62175;49.416;8.690;2023-02-12T06:20:00;102659.60;;;8.96;53.06
43281;BME280;62175;49.416;8.690;2023-02-12T06:22:27;102658.52;;;8.93;53.17
43281;BME280;62175;49.416;8.690;2023-02-12T06:24:55;102658.97;;;8.83;53.44
43281;BME280;62175;49.416;8.690;2023-02-12T06:27:22;102661.75;;;8.93;53.17
43281;BME280;62175;49.416;8.690;2023-02-12T06:29:49;102663.61;;;8.91;52.72
43281;BME280;62175;49.416;8.690;2023-02-12T06:32:17;102667.04;;;9.23;52.86
43281;BME280;62175;49.416;8.690;2023-02-12T06:34:44;102666.66;;;9.07;52.82
43281;BME280;62175;49.416;8.690;2023-02-12T06:37:11;102666.57;;;8.93;52.77
43281;BME280;62175;49.416;8.690;2023-02-12T06:39:38;102669.67;;;9.08;53.15
43281;BME280;62175;49.416;8.690;2023-02-12T06:42:05;102671.68;;;8.68;53.04
43281;BME280;62175;49.416;8.690;2023-02-12T06:44:33;102675.09;;;8.75;52.76
43281;BME280;62175;49.416;8.690;2023-02-12T06:47:00;102677.95;;;8.88;53.25
43281;BME280;62175;49.416;8.690;2023-02-12T06:49:29;102675.67;;;8.65;52.86
43281;BME280;62175;49.416;8.690;2023-02-12T06:51:56;102677.09;;;9.02;53.15
43281;BME280;62175;49.416;8.690;2023-02-12T06:54:23;102674.36;;;8.92;53.17
43281;BME280;62175;49.416;8.690;2023-02-12T06:56:50;102675.38;;;8.86;52.84
43281;BME280;62175;49.416;8.690;2023-02-12T06:59:17;102678.11;;;8.86;53.30
43281;BME280;62175;49.416;8.690;2023-02-12T07:01:45;102675.18;;;8.99;53.13
43281;BME280;62175;49.416;8.690;2023-02-12T07:04:12;102677.16;;;9.04;53.14
43281;BME280;62175;49.416;8.690;2023-02-12T07:06:40;102679.30;;;8.95;53.84
43281;BME280;62175;49.416;8.690;2023-02-12T07:09:07;102680.84;;;8.86;52.98
43281;BME280;62175;49.416;8.690;2023-02-12T07:11:35;102683.52;;;8.84;53.40
43281;BME280;62175;49.416;8.690;2023-02-12T07:14:03;102687.71;;;8.77;53.10
43281;BME280;62175;49.416;8.690;2023-02-12T07:16:30;102688.11;;;9.10;53.71
43281;BME280;62175;49.416;8.690;2023-02-12T07:18:57;102688.64;;;9.24;52.78
43281;BME280;62175;49.416;8.690;2023-02-12T07:21:24;102692.16;;;9.05;53.60
43281;BME280;62175;49.416;8.690;2023-02-12T07:23:53;102694.25;;;9.00;53.10
43281;BME280;62175;49.416;8.690;2023-02-12T07:26:21;102696.98;;;9.01;53.25
43281;BME280;62175;49.416;8.690;2023-02-12T07:28:49;102695.68;;;8.88;53.25
43281;BME280;62175;49.416;8.690;2023-02-12T07:31:19;102697.48;;;9.00;53.40
43281;BME280;62175;49.416;8.690;2023-02-12T07:33:46;102698.19;;;9.30;53.75
43281;BME280;62175;49.416;8.690;2023-02-12T07:36:15;102699.93;;;9.10;52.90
43281;BME280;62175;49.416;8.690;2023-02-12T07:38:43;102698.98;;;9.09;53.36
43281;BME280;62175;49.416;8.690;2023-02-12T07:41:13;102695.58;;;9.09;53.50
43281;BME280;62175;49.416;8.690;2023-02-12T07:43:42;102694.84;;;9.37;54.47
43281;BME280;62175;49.416;8.690;2023-02-12T07:46:11;102696.06;;;9.26;52.75
43281;BME280;62175;49.416;8.690;2023-02-12T07:48:39;102700.43;;;9.42;53.08
43281;BME280;62175;49.416;8.690;2023-02-12T07:51:08;102698.31;;;9.29;52.99
43281;BME280;62175;49.416;8.690;2023-02-12T07:53:37;102701.52;;;9.35;52.70
43281;BME280;62175;49.416;8.690;2023-02-12T07:56:06;102699.63;;;9.27;53.15
43281;BME280;62175;49.416;8.690;2023-02-12T07:58:35;102705.27;;;9.29;54.13
43281;BME280;62175;49.416;8.690;2023-02-12T08:01:13;102705.58;;;9.24;53.21
43281;BME280;62175;49.416;8.690;2023-02-12T08:03:41;102710.20;;;9.34;53.06
43281;BME280;62175;49.416;8.690;2023-02-12T08:06:18;102710.37;;;9.25;53.75
43281;BME280;62175;49.416;8.690;2023-02-12T08:08:49;102703.06;;;9.22;52.68
43281;BME280;62175;49.416;8.690;2023-02-12T08:11:19;102705.54;;;9.49;52.39
43281;BME280;62175;49.416;8.690;2023-02-12T08:13:47;102707.19;;;9.44;52.89
43281;BME280;62175;49.416;8.690;2023-02-12T08:16:17;102708.03;;;9.34;53.85
43281;BME280;62175;49.416;8.690;2023-02-12T08:18:45;102709.73;;;9.30;52.97
43281;BME280;62175;49.416;8.690;2023-02-12T08:21:19;102711.78;;;9.48;53.53
43281;BME280;62175;49.416;8.690;2023-02-12T08:23:48;102713.57;;;9.39;52.75
43281;BME280;62175;49.416;8.690;2023-02-12T08:26:19;102717.10;;;9.54;52.81
43281;BME280;62175;49.416;8.690;2023-02-12T08:28:48;102717.90;;;9.71;53.05
43281;BME280;62175;49.416;8.690;2023-02-12T08:31:19;102718.16;;;9.66;53.84
43281;BME280;62175;49.416;8.690;2023-02-12T08:33:48;102713.92;;;9.43;54.55
43281;BME280;62175;49.416;8.690;2023-02-12T08:36:19;102717.27;;;9.55;53.29
43281;BME280;62175;49.416;8.690;2023-02-12T08:38:48;102718.58;;;9.62;53.43
43281;BME280;62175;49.416;8.690;2023-02-12T08:41:17;102718.35;;;9.60;53.55
43281;BME280;62175;49.416;8.690;2023-02-12T08:43:44;102715.63;;;9.85;54.17
43281;BME280;62175;49.416;8.690;2023-02-12T08:46:14;102717.24;;;9.61;54.44
43281;BME280;62175;49.416;8.690;2023-02-12T08:48:43;102714.88;;;9.69;54.78
43281;BME280;62175;49.416;8.690;2023-02-12T08:51:14;102717.91;;;9.84;53.39
43281;BME280;62175;49.416;8.690;2023-02-12T08:53:44;102720.47;;;9.71;54.06
43281;BME280;62175;49.416;8.690;2023-02-12T08:56:14;102720.10;;;9.65;53.64
43281;BME280;62175;49.416;8.690;2023-02-12T08:58:44;102720.88;;;9.64;54.96
43281;BME280;62175;49.416;8.690;2023-02-12T09:01:14;102721.13;;;9.70;53.77
43281;BME280;62175;49.416;8.690;2023-02-12T09:03:42;102726.21;;;9.71;53.65
43281;BME280;62175;49.416;8.690;2023-02-12T09:06:10;102727.38;;;9.93;54.39
43281;BME280;62175;49.416;8.690;2023-02-12T09:08:39;102724.21;;;9.74;54.15
43281;BME280;62175;49.416;8.690;2023-02-12T09:11:07;102728.91;;;9.77;54.30
43281;BME280;62175;49.416;8.690;2023-02-12T09:13:35;102728.62;;;9.75;53.53
43281;BME280;62175;49.416;8.690;2023-02-12T09:16:03;102729.42;;;9.45;53.49
43281;BME280;62175;49.416;8.690;2023-02-12T09:18:32;102728.36;;;9.56;53.67
43281;BME280;62175;49.416;8.690;2023-02-12T09:21:00;102732.68;;;9.62;53.51
43281;BME280;62175;49.416;8.690;2023-02-12T09:23:27;102735.04;;;9.77;53.52
43281;BME280;62175;49.416;8.690;2023-02-12T09:28:36;102736.84;;;9.58;54.38
43281;BME280;62175;49.416;8.690;2023-02-12T09:31:05;102739.34;;;9.42;54.52
43281;BME280;62175;49.416;8.690;2023-02-12T09:33:33;102736.95;;;9.93;53.29
43281;BME280;62175;49.416;8.690;2023-02-12T09:36:01;102737.19;;;9.97;53.26
43281;BME280;62175;49.416;8.690;2023-02-12T09:38:29;102737.83;;;9.89;54.25
43281;BME280;62175;49.416;8.690;2023-02-12T09:41:10;102734.42;;;9.87;54.66
43281;BME280;62175;49.416;8.690;2023-02-12T09:43:47;102733.53;;;9.89;53.74
43281;BME280;62175;49.416;8.690;2023-02-12T09:46:22;102739.70;;;9.85;53.96
43281;BME280;62175;49.416;8.690;2023-02-12T09:48:56;102737.14;;;9.36;53.60
43281;BME280;62175;49.416;8.690;2023-02-12T09:51:28;102738.71;;;9.88;53.91
43281;BME280;62175;49.416;8.690;2023-02-12T09:54:02;102736.57;;;9.60;53.59
43281;BME280;62175;49.416;8.690;2023-02-12T09:56:30;102740.84;;;9.78;53.17
43281;BME280;62175;49.416;8.690;2023-02-12T09:59:03;102739.49;;;9.88;54.79
43281;BME280;62175;49.416;8.690;2023-02-12T10:01:32;102738.04;;;9.87;53.52
43281;BME280;62175;49.416;8.690;2023-02-12T10:04:01;102737.53;;;9.85;53.59
43281;BME280;62175;49.416;8.690;2023-02-12T10:06:36;102738.20;;;9.85;54.00
43281;BME280;62175;49.416;8.690;2023-02-12T10:09:24;102738.75;;;9.84;53.36
43281;BME280;62175;49.416;8.690;2023-02-12T10:12:02;102738.48;;;9.87;53.36
43281;BME280;62175;49.416;8.690;2023-02-12T10:14:47;102740.02;;;9.93;54.53
43281;BME280;62175;49.416;8.690;2023-02-12T10:17:26;102739.58;;;9.95;53.44
43281;BME280;62175;49.416;8.690;2023-02-12T10:20:07;102738.60;;;10.01;53.33
43281;BME280;62175;49.416;8.690;2023-02-12T10:22:46;102735.59;;;10.00;53.50
43281;BME280;62175;49.416;8.690;2023-02-12T10:25:22;102733.42;;;9.79;53.18
43281;BME280;62175;49.416;8.690;2023-02-12T10:27:54;102732.88;;;9.83;53.11
43281;BME280;62175;49.416;8.690;2023-02-12T10:30:24;102734.52;;;9.62;53.11
43281;BME280;62175;49.416;8.690;2023-02-12T10:32:59;102731.34;;;9.62;53.03
43281;BME280;62175;49.416;8.690;2023-02-12T10:36:05;102730.17;;;9.77;52.87
43281;BME280;62175;49.416;8.690;2023-02-12T10:38:39;102725.87;;;10.02;52.93
43281;BME280;62175;49.416;8.690;2023-02-12T10:41:10;102724.01;;;9.96;53.04
43281;BME280;62175;49.416;8.690;2023-02-12T10:43:40;102720.85;;;9.74;53.11
43281;BME280;62175;49.416;8.690;2023-02-12T10:46:11;102717.57;;;9.77;53.11
43281;BME280;62175;49.416;8.690;2023-02-12T10:48:43;102710.61;;;10.45;52.81
43281;BME280;62175;49.416;8.690;2023-02-12T10:51:24;102711.06;;;10.29;53.23
43281;BME280;62175;49.416;8.690;2023-02-12T10:53:56;102707.87;;;9.95;52.81
43281;BME280;62175;49.416;8.690;2023-02-12T10:56:24;102704.45;;;10.06;52.61
43281;BME280;62175;49.416;8.690;2023-02-12T10:58:55;102707.73;;;10.03;52.60
43281;BME280;62175;49.416;8.690;2023-02-12T11:01:25;102708.39;;;9.83;53.18
43281;BME280;62175;49.416;8.690;2023-02-12T11:03:55;102703.61;;;10.12;53.05
43281;BME280;62175;49.416;8.690;2023-02-12T11:06:25;102700.97;;;10.18;52.54
43281;BME280;62175;49.416;8.690;2023-02-12T11:08:53;102703.31;;;9.98;52.75
43281;BME280;62175;49.416;8.690;2023-02-12T11:11:23;102705.24;;;9.90;53.05
43281;BME280;62175;49.416;8.690;2023-02-12T11:13:57;102703.27;;;10.04;52.70
43281;BME280;62175;49.416;8.690;2023-02-12T11:16:28;102702.61;;;10.28;52.50
43281;BME280;62175;49.416;8.690;2023-02-12T11:19:00;102701.29;;;10.15;52.57
43281;BME280;62175;49.416;8.690;2023-02-12T11:21:29;102703.93;;;10.01;53.06
43281;BME280;62175;49.416;8.690;2023-02-12T11:23:57;102700.23;;;10.38;52.89
43281;BME280;62175;49.416;8.690;2023-02-12T11:26:46;102697.29;;;10.00;53.10
43281;BME280;62175;49.416;8.690;2023-02-12T11:29:19;102689.24;;;10.11;52.76
43281;BME280;62175;49.416;8.690;2023-02-12T11:32:00;102686.04;;;10.05;52.83
43281;BME280;62175;49.416;8.690;2023-02-12T11:34:29;102684.53;;;10.02;53.03
43281;BME280;62175;49.416;8.690;2023-02-12T11:36:56;102684.26;;;10.06;53.01
43281;BME280;62175;49.416;8.690;2023-02-12T11:39:27;102675.33;;;10.27;52.58
43281;BME280;62175;49.416;8.690;2023-02-12T11:41:58;102672.30;;;10.48;52.44
43281;BME280;62175;49.416;8.690;2023-02-12T11:44:34;102667.36;;;10.34;52.37
43281;BME280;62175;49.416;8.690;2023-02-12T11:47:05;102663.99;;;10.53;52.36
43281;BME280;62175;49.416;8.690;2023-02-12T11:49:38;102664.71;;;10.47;52.36
43281;BME280;62175;49.416;8.690;2023-02-12T11:52:15;102665.10;;;10.50;52.16
43281;BME280;62175;49.416;8.690;2023-02-12T11:54:48;102662.97;;;10.39;52.30
43281;BME280;62175;49.416;8.690;2023-02-12T11:57:49;102664.02;;;10.37;52.53
43281;BME280;62175;49.416;8.690;2023-02-12T12:00:25;102665.09;;;10.42;52.64
43281;BME280;62175;49.416;8.690;2023-02-12T12:03:00;102659.70;;;10.55;52.16
43281;BME280;62175;49.416;8.690;2023-02-12T12:05:36;102658.35;;;10.29;52.16
43281;BME280;62175;49.416;8.690;2023-02-12T12:08:13;102656.41;;;10.34;52.27
43281;BME280;62175;49.416;8.690;2023-02-12T12:10:49;102653.56;;;10.57;52.08
43281;BME280;62175;49.416;8.690;2023-02-12T12:13:22;102653.28;;;10.54;52.26
43281;BME280;62175;49.416;8.690;2023-02-12T12:15:59;102643.79;;;10.54;52.55
43281;BME280;62175;49.416;8.690;2023-02-12T12:18:36;102640.53;;;10.95;51.84
43281;BME280;62175;49.416;8.690;2023-02-12T12:21:15;102640.69;;;10.79;52.17
43281;BME280;62175;49.416;8.690;2023-02-12T12:23:51;102640.13;;;10.48;52.03
43281;BME280;62175;49.416;8.690;2023-02-12T12:26:26;102633.66;;;10.82;51.91
43281;BME280;62175;49.416;8.690;2023-02-12T12:29:00;102632.88;;;10.97;51.79
43281;BME280;62175;49.416;8.690;2023-02-12T12:32:11;102630.97;;;10.94;52.11
43281;BME280;62175;49.416;8.690;2023-02-12T12:57:04;102600.88;;;10.94;54.40
43281;BME280;62175;49.416;8.690;2023-02-12T13:03:39;102587.21;;;11.94;52.86
43281;BME280;62175;49.416;8.690;2023-02-12T13:06:29;102583.30;;;11.69;52.30
43281;BME280;62175;49.416;8.690;2023-02-12T13:09:13;102583.30;;;10.79;54.10
43281;BME280;62175;49.416;8.690;2023-02-12T13:12:00;102575.84;;;11.34;54.05
43281;BME280;62175;49.416;8.690;2023-02-12T13:14:38;102571.97;;;11.64;52.41
43281;BME280;62175;49.416;8.690;2023-02-12T13:17:18;102570.34;;;11.48;52.60
43281;BME280;62175;49.416;8.690;2023-02-12T13:19:58;102567.21;;;11.88;52.27
43281;BME280;62175;49.416;8.690;2023-02-12T13:22:30;102565.63;;;11.95;52.21
43281;BME280;62175;49.416;8.690;2023-02-12T13:25:19;102564.99;;;11.81;52.08
43281;BME280;62175;49.416;8.690;2023-02-12T13:27:50;102565.84;;;11.57;52.29
43281;BME280;62175;49.416;8.690;2023-02-12T13:30:22;102562.53;;;11.62;51.72
43281;BME280;62175;49.416;8.690;2023-02-12T13:33:00;102560.75;;;11.60;51.87
43281;BME280;62175;49.416;8.690;2023-02-12T13:35:30;102555.50;;;11.78;50.94
43281;BME280;62175;49.416;8.690;2023-02-12T13:37:59;102555.14;;;11.39;51.38
43281;BME280;62175;49.416;8.690;2023-02-12T13:40:38;102551.46;;;11.97;50.85
43281;BME280;62175;49.416;8.690;2023-02-12T13:43:18;102554.02;;;11.59;49.89
43281;BME280;62175;49.416;8.690;2023-02-12T13:45:57;102550.20;;;11.55;50.52
43281;BME280;62175;49.416;8.690;2023-02-12T13:49:00;102548.90;;;11.58;50.63
43281;BME280;62175;49.416;8.690;2023-02-12T18:31:29;102568.09;;;9.92;56.72
